Pagrindinis puslapis
METAR-TAF:

METAR-TAF

Oro uostai :

Čanakalė, Turkija

platuma: 40-08N, ilguma: 026-24E, Aukštis: 3 m

Dabartinis oras

Ataskaita buvo paskelbta 1 valandą ir 18 minutes, ne 16:50 UTC
Vėjas 15 kt iš Rytų/Šiaurės Rytų
Temperatūra 24°C
Drėgmė 47%
Slėgis 1020 hPa
Matomumas 10 km arba daugiau
nėra debesų žemiau 1500 m ir nėra kamuolinių lietaus debesų

METAR: LTBH 151650Z 06015KT CAVOK 24/12 Q1020

Laikas: 21:08 (18:08 UTC)

Prognozė

Ataskaita buvo paskelbta 1 valandą ir 28 minutes, ne 16:40 UTC
Prognozė galioja nuo 15 metu 18 UTC su 16 metu 03 UTC
Vėjas 18 kt iš Šiaurės Rytų
Matomumas 10 km arba daugiau
Mažai debesys ne aukštis 3500 ft
Tapsmas
nuo 15 metu 19 UTC su 15 metu 22 UTC
Vėjas 7 kt iš Šiaurės Rytų

TAF: LTBH 151640Z 1518/1603 04018KT 9999 FEW035 BECMG 1519/1522 05007KT

Orai ataskaitas ir orų prognozės (METAR, TAF).

turimą stotys yra geltonos ir raudonos taškus žemėlapyje.

Perkelti pele per norėdami pamatyti stoties vardą.

Tada spustelėkite, norėdami matyti oro stebėjimo ir prognozės.

Norėdami pakeisti žemėlapį: spustelėkite ant žalios mygtukų su juodo kryžiaus žemyn,; žalią mygtuką su brūkšneliu, jei norite nutolinti; arba žalių rodyklių gretimoms žemėlapius.


METAR-TAF: